createdAt,value
2022-12-23T00:00:29.338Z,95723.44
2022-12-23T00:02:56.528Z,95720.63
2022-12-23T00:05:23.614Z,95722.63
2022-12-23T00:07:50.397Z,95714.19
2022-12-23T00:10:17.296Z,95710.50
2022-12-23T00:13:02.491Z,95707.31
2022-12-23T00:15:29.323Z,95697.63
2022-12-23T00:17:56.175Z,95691.16
2022-12-23T00:20:23.596Z,95692.78
2022-12-23T00:23:05.320Z,95683.72
2022-12-23T00:25:46.047Z,95685.53
2022-12-23T00:28:20.222Z,95679.44
2022-12-23T00:30:48.881Z,95684.69
2022-12-23T00:33:18.306Z,95685.88
2022-12-23T00:35:46.317Z,95677.38
2022-12-23T00:38:13.550Z,95668.50
2022-12-23T00:40:58.697Z,95674.34
2022-12-23T00:43:25.549Z,95665.44
2022-12-23T00:45:52.560Z,95655.94
2022-12-23T00:48:37.798Z,95654.72
2022-12-23T00:51:04.753Z,95640.91
2022-12-23T00:53:31.557Z,95647.78
2022-12-23T00:55:58.605Z,95642.41
2022-12-23T00:58:26.515Z,95643.38
2022-12-23T01:01:12.298Z,95648.63
2022-12-23T01:03:57.640Z,95645.00
2022-12-23T01:06:24.612Z,95641.78
2022-12-23T01:08:51.540Z,95641.59
2022-12-23T01:11:18.565Z,95639.00
2022-12-23T01:13:45.397Z,95626.88
2022-12-23T01:16:17.219Z,95626.91
2022-12-23T01:18:45.250Z,95641.44
2022-12-23T01:21:12.513Z,95644.25
2022-12-23T01:23:39.562Z,95631.00
2022-12-23T01:26:08.102Z,95615.19
2022-12-23T01:28:36.095Z,95626.47
2022-12-23T01:31:05.641Z,95629.72
2022-12-23T01:33:33.548Z,95623.69
2022-12-23T01:36:07.429Z,95620.09
2022-12-23T01:38:34.996Z,95607.88
2022-12-23T01:41:01.814Z,95610.34
2022-12-23T01:43:50.690Z,95613.13
2022-12-23T01:46:18.911Z,95600.69
2022-12-23T01:48:51.208Z,95604.25
2022-12-23T01:51:28.902Z,95601.81
2022-12-23T01:54:01.187Z,95602.63
2022-12-23T01:56:34.912Z,95607.94
2022-12-23T01:59:10.493Z,95606.94
2022-12-23T02:01:56.374Z,95595.00
2022-12-23T02:04:25.581Z,95609.91
2022-12-23T02:07:11.292Z,95607.88
2022-12-23T02:09:40.606Z,95601.25
2022-12-23T02:12:37.124Z,95604.63
2022-12-23T02:15:37.585Z,95610.72
2022-12-23T02:18:07.403Z,95609.56
2022-12-23T02:21:36.547Z,95623.66
2022-12-23T02:24:33.540Z,95628.91
2022-12-23T02:27:09.645Z,95620.03
2022-12-23T02:30:19.318Z,95631.72
2022-12-23T02:33:12.892Z,95632.50
2022-12-23T02:36:23.416Z,95633.34
2022-12-23T02:39:07.952Z,95627.47
2022-12-23T02:42:31.300Z,95635.78
2022-12-23T02:45:04.003Z,95627.72
2022-12-23T02:47:42.868Z,95634.16
2022-12-23T02:50:18.669Z,95635.13
2022-12-23T02:52:49.581Z,95626.84
2022-12-23T02:55:25.691Z,95624.78
2022-12-23T02:57:55.162Z,95629.22
2022-12-23T03:00:22.771Z,95617.97
2022-12-23T03:02:50.240Z,95626.72
2022-12-23T03:05:39.262Z,95622.44
2022-12-23T03:08:31.922Z,95619.44
2022-12-23T03:11:09.756Z,95614.84
2022-12-23T03:13:48.316Z,95624.19
2022-12-23T03:16:28.397Z,95618.84
2022-12-23T03:19:35.123Z,95628.81
2022-12-23T03:22:34.405Z,95626.81
2022-12-23T03:25:27.372Z,95622.06
2022-12-23T03:28:11.408Z,95611.31
2022-12-23T03:30:43.419Z,95613.06
2022-12-23T03:33:24.439Z,95619.41
2022-12-23T03:36:02.336Z,95620.19
2022-12-23T03:38:32.812Z,95614.84
2022-12-23T03:41:06.762Z,95625.69
2022-12-23T03:43:44.944Z,95618.69
2022-12-23T03:46:23.525Z,95628.78
2022-12-23T03:48:59.007Z,95621.56
2022-12-23T03:51:36.393Z,95623.38
2022-12-23T03:54:16.562Z,95628.94
2022-12-23T03:56:55.026Z,95624.69
2022-12-23T03:59:28.812Z,95627.06
2022-12-23T04:02:44.660Z,95637.13
2022-12-23T04:05:40.438Z,95625.75
2022-12-23T04:08:27.408Z,95637.19
2022-12-23T04:10:54.587Z,95637.41
2022-12-23T04:13:21.370Z,95643.72
2022-12-23T04:15:48.343Z,95634.41
2022-12-23T04:18:16.370Z,95626.84
2022-12-23T04:20:43.236Z,95628.28
2022-12-23T04:23:10.426Z,95633.69
2022-12-23T04:25:37.244Z,95632.25
2022-12-23T04:28:04.283Z,95631.75
2022-12-23T04:30:34.445Z,95652.34
2022-12-23T04:33:02.189Z,95648.06
2022-12-23T04:35:29.577Z,95637.19
2022-12-23T04:37:56.424Z,95642.44
2022-12-23T04:40:23.258Z,95647.94
2022-12-23T04:42:50.099Z,95656.19
2022-12-23T04:45:17.044Z,95644.78
2022-12-23T04:47:43.855Z,95654.38
2022-12-23T04:50:14.959Z,95657.16
2022-12-23T04:52:43.114Z,95661.88
2022-12-23T04:55:10.801Z,95668.84
2022-12-23T04:57:37.666Z,95666.81
2022-12-23T05:00:05.824Z,95675.91
2022-12-23T05:02:32.743Z,95666.25
2022-12-23T05:04:59.668Z,95659.31
2022-12-23T05:07:26.484Z,95671.91
2022-12-23T05:09:53.385Z,95677.97
2022-12-23T05:12:20.187Z,95668.06
2022-12-23T05:14:47.253Z,95668.00
2022-12-23T05:17:14.078Z,95678.38
2022-12-23T05:19:40.856Z,95682.59
2022-12-23T05:22:07.650Z,95691.00
2022-12-23T05:24:34.428Z,95683.47
2022-12-23T05:27:01.256Z,95688.38
2022-12-23T05:29:28.513Z,95692.13
2022-12-23T05:31:55.424Z,95693.22
2022-12-23T05:34:22.327Z,95705.28
2022-12-23T05:36:49.239Z,95699.94
2022-12-23T05:39:16.053Z,95705.66
2022-12-23T05:41:43.029Z,95715.09
2022-12-23T05:44:10.022Z,95716.50
2022-12-23T05:46:36.968Z,95719.75
2022-12-23T05:49:03.951Z,95718.00
2022-12-23T05:51:30.777Z,95726.50
2022-12-23T05:53:57.604Z,95719.06
2022-12-23T05:56:24.457Z,95718.44
2022-12-23T05:58:51.283Z,95714.19
2022-12-23T06:01:18.740Z,95720.84
2022-12-23T06:03:45.751Z,95730.00
2022-12-23T06:06:12.706Z,95732.28
2022-12-23T06:08:39.557Z,95733.31
2022-12-23T06:11:06.717Z,95732.16
2022-12-23T06:13:33.575Z,95736.72
2022-12-23T06:16:00.421Z,95738.75
2022-12-23T06:18:27.315Z,95742.38
2022-12-23T06:20:54.194Z,95741.03
2022-12-23T06:23:21.061Z,95745.00
2022-12-23T06:25:47.871Z,95750.81
2022-12-23T06:28:14.731Z,95749.56
2022-12-23T06:30:41.560Z,95763.16
2022-12-23T06:33:08.403Z,95769.44
2022-12-23T06:35:35.194Z,95773.28
2022-12-23T06:38:02.045Z,95785.63
2022-12-23T06:40:29.633Z,95785.22
2022-12-23T06:42:56.610Z,95788.91
2022-12-23T06:45:23.458Z,95787.59
2022-12-23T06:47:50.337Z,95788.00
2022-12-23T06:50:17.215Z,95792.09
2022-12-23T06:52:45.548Z,95796.91
2022-12-23T06:55:12.515Z,95795.75
2022-12-23T06:57:39.371Z,95795.69
2022-12-23T07:00:07.716Z,95796.44
2022-12-23T07:02:35.080Z,95803.94
2022-12-23T07:05:02.440Z,95796.91
2022-12-23T07:07:29.658Z,95804.13
2022-12-23T07:09:56.486Z,95809.06
2022-12-23T07:12:23.286Z,95807.53
2022-12-23T07:14:50.128Z,95809.41
2022-12-23T07:17:17.293Z,95813.03
2022-12-23T07:19:44.181Z,95816.69
2022-12-23T07:22:11.046Z,95814.13
2022-12-23T07:24:38.072Z,95816.13
2022-12-23T07:27:05.296Z,95819.53
2022-12-23T07:29:32.119Z,95819.47
2022-12-23T07:31:59.113Z,95822.59
2022-12-23T07:34:25.993Z,95831.06
2022-12-23T07:36:52.841Z,95820.13
2022-12-23T07:39:19.893Z,95828.19
2022-12-23T07:41:46.736Z,95824.06
2022-12-23T07:44:13.916Z,95824.47
2022-12-23T07:46:40.748Z,95822.78
2022-12-23T07:49:08.046Z,95840.31
2022-12-23T07:51:34.850Z,95837.84
2022-12-23T07:54:01.730Z,95836.81
2022-12-23T07:56:28.636Z,95835.81
2022-12-23T07:58:55.527Z,95833.31
2022-12-23T08:01:22.678Z,95837.78
2022-12-23T08:03:49.620Z,95840.13
2022-12-23T08:06:17.013Z,95847.28
2022-12-23T08:08:46.329Z,95850.00
2022-12-23T08:11:16.725Z,95850.38
2022-12-23T08:13:45.638Z,95857.56
2022-12-23T08:16:12.946Z,95855.06
2022-12-23T08:18:41.984Z,95857.28
2022-12-23T08:21:17.892Z,95852.94
2022-12-23T08:23:47.191Z,95863.19
2022-12-23T08:26:23.167Z,95858.16
2022-12-23T08:28:53.491Z,95853.91
2022-12-23T08:31:28.414Z,95859.09
2022-12-23T08:33:57.966Z,95848.25
2022-12-23T08:36:29.441Z,95849.41
2022-12-23T08:38:59.017Z,95842.00
2022-12-23T08:41:36.566Z,95839.78
2022-12-23T08:44:04.126Z,95844.09
2022-12-23T08:46:31.004Z,95842.81
2022-12-23T08:48:59.111Z,95850.53
2022-12-23T08:51:28.287Z,95852.84
2022-12-23T08:54:01.106Z,95855.38
2022-12-23T08:56:33.076Z,95869.94
2022-12-23T08:59:01.150Z,95868.75
2022-12-23T09:01:31.411Z,95866.31
2022-12-23T09:03:58.975Z,95873.91
2022-12-23T09:06:30.441Z,95879.91
2022-12-23T09:08:58.590Z,95889.88
2022-12-23T09:11:29.728Z,95900.44
2022-12-23T09:13:59.515Z,95904.47
2022-12-23T09:16:27.450Z,95898.69
2022-12-23T09:18:54.361Z,95893.22
2022-12-23T09:21:23.467Z,95889.16
2022-12-23T09:23:51.158Z,95886.31
2022-12-23T09:26:24.800Z,95884.09
2022-12-23T09:28:52.314Z,95868.84
2022-12-23T09:31:19.979Z,95865.38
2022-12-23T09:33:49.443Z,95864.91
2022-12-23T09:36:17.497Z,95866.94
2022-12-23T09:38:44.951Z,95860.16
2022-12-23T09:41:53.875Z,95875.78
2022-12-23T09:44:47.405Z,95878.34
2022-12-23T09:47:22.311Z,95867.13
2022-12-23T09:49:57.239Z,95868.69
2022-12-23T09:52:48.200Z,95874.69
2022-12-23T09:55:16.498Z,95860.19
2022-12-23T09:58:01.113Z,95864.47
2022-12-23T10:00:41.632Z,95862.06
2022-12-23T10:03:22.471Z,95863.66
2022-12-23T10:06:11.588Z,95862.03
2022-12-23T10:08:43.225Z,95859.41
2022-12-23T10:11:27.044Z,95852.50
2022-12-23T10:14:05.128Z,95852.28
2022-12-23T10:16:50.703Z,95852.31
2022-12-23T10:19:48.506Z,95856.06
2022-12-23T10:22:41.367Z,95842.28
2022-12-23T10:25:23.065Z,95839.06
2022-12-23T10:27:50.101Z,95843.09
2022-12-23T10:34:05.786Z,95847.00
2022-12-23T10:37:08.236Z,95840.44
2022-12-23T10:39:56.678Z,95841.94
2022-12-23T10:43:15.260Z,95839.78
2022-12-23T10:45:54.357Z,95828.50
2022-12-23T10:48:38.307Z,95836.06
2022-12-23T10:51:22.074Z,95839.31
2022-12-23T10:53:56.944Z,95838.84
2022-12-23T10:56:23.849Z,95845.59
2022-12-23T10:58:55.357Z,95824.00
2022-12-23T11:01:27.118Z,95826.69
2022-12-23T11:04:07.904Z,95829.06
2022-12-23T11:06:40.451Z,95833.91
2022-12-23T11:09:23.019Z,95825.19
2022-12-23T11:12:06.505Z,95828.25
2022-12-23T11:14:44.082Z,95823.47
2022-12-23T11:17:24.889Z,95832.09
2022-12-23T11:20:10.469Z,95827.13
2022-12-23T11:23:02.241Z,95825.41
2022-12-23T11:25:43.574Z,95828.97
2022-12-23T11:28:10.320Z,95826.09
2022-12-23T11:30:55.861Z,95816.44
2022-12-23T11:33:37.707Z,95816.34
2022-12-23T11:36:13.667Z,95826.22
2022-12-23T11:38:50.833Z,95821.34
2022-12-23T11:41:28.457Z,95819.28
2022-12-23T11:44:26.492Z,95826.41
2022-12-23T11:46:53.413Z,95825.94
2022-12-23T11:49:31.451Z,95812.97
2022-12-23T11:52:11.766Z,95802.97
2022-12-23T11:54:39.487Z,95797.91
2022-12-23T11:57:15.826Z,95788.09
2022-12-23T11:59:48.865Z,95777.25
2022-12-23T12:02:39.880Z,95786.22
2022-12-23T12:05:16.713Z,95783.88
2022-12-23T12:07:45.287Z,95784.50
2022-12-23T12:10:28.630Z,95791.38
2022-12-23T12:13:05.484Z,95778.41
2022-12-23T12:15:41.141Z,95782.56
2022-12-23T12:18:15.232Z,95769.91
2022-12-23T12:20:54.006Z,95768.34
2022-12-23T12:23:40.730Z,95760.97
2022-12-23T12:26:31.818Z,95758.22
2022-12-23T12:29:37.717Z,95758.25
2022-12-23T12:32:12.322Z,95758.00
2022-12-23T12:35:22.169Z,95746.75
2022-12-23T12:37:57.092Z,95754.09
2022-12-23T12:40:39.307Z,95745.47
2022-12-23T12:43:34.821Z,95747.44
2022-12-23T12:46:43.575Z,95737.56
2022-12-23T12:49:49.967Z,95732.84
2022-12-23T12:52:22.296Z,95726.56
2022-12-23T12:54:55.766Z,95725.03
2022-12-23T12:57:25.081Z,95724.00
2022-12-23T13:00:03.583Z,95711.16
2022-12-23T13:03:09.112Z,95717.56
2022-12-23T13:06:13.522Z,95716.63
2022-12-23T13:09:17.481Z,95718.25
2022-12-23T13:11:58.886Z,95712.53
2022-12-23T13:15:12.334Z,95718.25
2022-12-23T13:18:28.307Z,95711.00
2022-12-23T13:21:13.358Z,95717.00
2022-12-23T13:24:03.940Z,95711.34
2022-12-23T13:26:49.318Z,95709.66
2022-12-23T13:30:01.121Z,95699.94
2022-12-23T13:32:59.768Z,95692.00
2022-12-23T13:35:46.557Z,95695.31
2022-12-23T13:39:04.572Z,95685.22
2022-12-23T13:41:44.103Z,95685.91
2022-12-23T13:44:13.540Z,95684.31
2022-12-23T13:47:16.067Z,95690.84
2022-12-23T13:49:54.552Z,95689.47
2022-12-23T13:53:17.547Z,95692.75
2022-12-23T13:56:17.235Z,95694.19
2022-12-23T13:58:49.142Z,95693.44
2022-12-23T14:01:15.884Z,95696.41
2022-12-23T14:03:44.966Z,95690.41
2022-12-23T14:06:22.386Z,95684.94
2022-12-23T14:08:51.039Z,95687.59
2022-12-23T14:11:31.963Z,95674.41
2022-12-23T14:14:02.018Z,95678.16
2022-12-23T14:16:28.810Z,95684.50
2022-12-23T14:19:38.949Z,95675.28
2022-12-23T14:22:26.762Z,95676.47
2022-12-23T14:25:58.047Z,95683.78
2022-12-23T14:28:37.133Z,95676.69
2022-12-23T14:31:05.703Z,95676.91
2022-12-23T14:33:37.934Z,95675.78
2022-12-23T14:36:25.993Z,95667.16
2022-12-23T14:39:11.492Z,95666.94
2022-12-23T14:41:39.495Z,95663.78
2022-12-23T14:44:38.188Z,95664.06
2022-12-23T14:47:32.252Z,95660.16
2022-12-23T14:50:42.552Z,95654.19
2022-12-23T14:53:30.260Z,95645.25
2022-12-23T14:56:15.120Z,95647.09
2022-12-23T14:59:07.880Z,95651.78
2022-12-23T15:01:48.363Z,95644.47
2022-12-23T15:04:29.253Z,95646.88
2022-12-23T15:07:13.699Z,95637.44
2022-12-23T15:10:01.156Z,95646.19
2022-12-23T15:12:32.910Z,95640.69
2022-12-23T15:15:13.890Z,95643.03
2022-12-23T15:17:40.910Z,95631.69
2022-12-23T15:20:15.576Z,95642.50
2022-12-23T15:22:44.791Z,95644.78
2022-12-23T15:25:27.269Z,95642.72
2022-12-23T15:28:01.427Z,95635.94
2022-12-23T15:30:34.074Z,95637.34
2022-12-23T15:33:16.062Z,95639.06
2022-12-23T15:35:53.583Z,95639.97
2022-12-23T15:38:22.377Z,95634.91
2022-12-23T15:41:02.996Z,95644.09
2022-12-23T15:43:30.935Z,95646.16
2022-12-23T15:46:26.804Z,95635.94
2022-12-23T15:48:56.710Z,95645.00
2022-12-23T15:52:05.737Z,95639.63
2022-12-23T15:54:52.604Z,95641.59
2022-12-23T15:57:22.714Z,95637.66
2022-12-23T15:59:50.180Z,95641.31
2022-12-23T16:02:59.780Z,95636.88
2022-12-23T16:05:34.903Z,95642.72
2022-12-23T16:08:31.539Z,95645.78
2022-12-23T16:11:18.984Z,95640.88
2022-12-23T16:14:02.074Z,95636.16
2022-12-23T16:16:40.973Z,95638.03
2022-12-23T16:19:39.956Z,95644.88
2022-12-23T16:22:22.474Z,95631.97
2022-12-23T16:24:59.124Z,95633.69
2022-12-23T16:27:48.122Z,95632.66
2022-12-23T16:30:19.032Z,95636.31
2022-12-23T16:32:55.790Z,95624.47
2022-12-23T16:35:33.695Z,95626.88
2022-12-23T16:38:22.605Z,95619.09
2022-12-23T16:40:53.626Z,95621.63
2022-12-23T16:43:22.322Z,95627.38
2022-12-23T16:45:57.270Z,95625.41
2022-12-23T16:48:33.164Z,95623.69
2022-12-23T16:51:02.111Z,95620.34
2022-12-23T16:53:29.023Z,95631.97
2022-12-23T16:56:00.583Z,95627.22
2022-12-23T16:58:28.393Z,95622.88
2022-12-23T17:00:55.965Z,95609.06
2022-12-23T17:03:22.857Z,95618.06
2022-12-23T17:05:49.732Z,95622.47
2022-12-23T17:08:16.677Z,95621.84
2022-12-23T17:10:44.927Z,95615.63
2022-12-23T17:13:15.153Z,95619.81
2022-12-23T17:15:42.012Z,95617.50
2022-12-23T17:18:17.360Z,95629.97
2022-12-23T17:20:46.565Z,95622.06
2022-12-23T17:23:31.101Z,95624.38
2022-12-23T17:25:58.850Z,95626.88
2022-12-23T17:28:32.350Z,95629.44
2022-12-23T17:31:00.219Z,95637.47
2022-12-23T17:33:31.071Z,95635.84
2022-12-23T17:35:58.345Z,95639.50
2022-12-23T17:38:25.391Z,95645.84
2022-12-23T17:40:52.250Z,95645.84
2022-12-23T17:43:19.515Z,95637.25
2022-12-23T17:45:47.162Z,95641.50
2022-12-23T17:48:20.847Z,95642.75
2022-12-23T17:50:50.246Z,95642.28
2022-12-23T17:53:19.487Z,95655.13
2022-12-23T17:55:46.701Z,95637.63
2022-12-23T17:58:14.352Z,95642.63
2022-12-23T18:00:41.756Z,95641.63
2022-12-23T18:03:23.118Z,95638.44
2022-12-23T18:05:52.965Z,95631.19
2022-12-23T18:08:21.199Z,95626.22
2022-12-23T18:10:48.225Z,95619.56
2022-12-23T18:13:20.101Z,95615.69
2022-12-23T18:15:47.675Z,95620.50
2022-12-23T18:18:27.551Z,95625.53
2022-12-23T18:21:00.092Z,95631.63
2022-12-23T18:23:32.871Z,95626.00
2022-12-23T18:26:00.705Z,95634.13
2022-12-23T18:28:27.732Z,95628.44
2022-12-23T18:30:58.455Z,95630.84
2022-12-23T18:33:28.664Z,95618.69
2022-12-23T18:35:55.853Z,95628.78
2022-12-23T18:38:23.018Z,95627.50
2022-12-23T18:40:53.772Z,95624.19
2022-12-23T18:43:24.769Z,95635.78
2022-12-23T18:45:53.795Z,95628.50
2022-12-23T18:48:21.517Z,95627.75
2022-12-23T18:50:48.906Z,95622.34
2022-12-23T18:53:24.724Z,95619.84
2022-12-23T18:55:53.946Z,95607.16
2022-12-23T18:58:22.283Z,95628.75
2022-12-23T19:00:50.262Z,95607.69
2022-12-23T19:03:25.860Z,95603.34
2022-12-23T19:05:54.147Z,95613.31
2022-12-23T19:08:26.762Z,95620.59
2022-12-23T19:10:55.825Z,95615.47
2022-12-23T19:13:23.205Z,95619.47
2022-12-23T19:15:50.715Z,95605.84
2022-12-23T19:18:20.439Z,95626.38
2022-12-23T19:20:48.705Z,95629.91
2022-12-23T19:23:16.199Z,95626.25
2022-12-23T19:25:52.547Z,95629.25
2022-12-23T19:28:21.866Z,95635.09
2022-12-23T19:30:49.166Z,95631.88
2022-12-23T19:33:16.235Z,95629.25
2022-12-23T19:35:43.891Z,95630.59
2022-12-23T19:38:12.152Z,95632.44
2022-12-23T19:40:39.198Z,95639.00
2022-12-23T19:43:06.034Z,95640.16
2022-12-23T19:45:33.117Z,95626.03
2022-12-23T19:47:59.932Z,95630.81
2022-12-23T19:50:27.306Z,95629.00
2022-12-23T19:52:56.293Z,95629.91
2022-12-23T19:55:23.674Z,95630.81
2022-12-23T19:57:51.721Z,95628.84
2022-12-23T20:00:18.728Z,95632.88
2022-12-23T20:02:45.623Z,95636.69
2022-12-23T20:05:12.490Z,95625.41
2022-12-23T20:07:39.499Z,95633.78
2022-12-23T20:10:07.447Z,95627.25
2022-12-23T20:12:34.341Z,95640.44
2022-12-23T20:15:01.186Z,95645.22
2022-12-23T20:17:28.056Z,95651.94
2022-12-23T20:19:54.842Z,95660.00
2022-12-23T20:22:21.680Z,95663.19
2022-12-23T20:24:48.981Z,95667.66
2022-12-23T20:27:16.379Z,95666.84
2022-12-23T20:29:44.435Z,95685.00
2022-12-23T20:32:11.258Z,95690.28
2022-12-23T20:34:40.076Z,95696.13
2022-12-23T20:37:07.574Z,95687.53
2022-12-23T20:39:34.893Z,95689.25
2022-12-23T20:42:01.948Z,95701.28
2022-12-23T20:44:37.327Z,95694.75
2022-12-23T20:47:06.513Z,95711.28
2022-12-23T20:49:33.440Z,95707.38
2022-12-23T20:52:00.668Z,95712.31
2022-12-23T20:54:33.617Z,95716.22
2022-12-23T20:57:02.055Z,95724.94
2022-12-23T20:59:29.415Z,95743.28
2022-12-23T21:01:58.942Z,95733.97
2022-12-23T21:04:26.708Z,95738.78
2022-12-23T21:06:53.784Z,95737.31
2022-12-23T21:09:20.596Z,95745.59
2022-12-23T21:11:48.577Z,95739.78
2022-12-23T21:14:16.158Z,95730.91
2022-12-23T21:16:43.675Z,95727.69
2022-12-23T21:19:16.936Z,95722.41
2022-12-23T21:21:44.265Z,95726.59
2022-12-23T21:24:11.466Z,95719.44
2022-12-23T21:26:38.841Z,95733.44
2022-12-23T21:29:08.513Z,95752.25
2022-12-23T21:31:39.142Z,95752.66
2022-12-23T21:34:06.758Z,95771.28
2022-12-23T21:36:37.304Z,95769.00
2022-12-23T21:39:06.001Z,95752.38
2022-12-23T21:41:37.411Z,95757.63
2022-12-23T21:44:05.441Z,95756.81
2022-12-23T21:46:32.615Z,95764.84
2022-12-23T21:49:00.783Z,95778.34
2022-12-23T21:51:39.020Z,95779.50
2022-12-23T21:54:07.893Z,95775.84
2022-12-23T21:56:35.368Z,95791.84
2022-12-23T21:59:11.091Z,95811.34
2022-12-23T22:01:38.677Z,95803.53
2022-12-23T22:04:06.031Z,95803.00
2022-12-23T22:06:39.950Z,95811.78
2022-12-23T22:09:08.035Z,95803.28
2022-12-23T22:11:37.052Z,95809.09
2022-12-23T22:14:07.430Z,95811.91
2022-12-23T22:16:35.814Z,95809.09
2022-12-23T22:19:05.614Z,95812.84
2022-12-23T22:21:34.484Z,95807.94
2022-12-23T22:24:02.314Z,95826.34
2022-12-23T22:26:32.380Z,95826.38
2022-12-23T22:29:03.108Z,95829.97
2022-12-23T22:31:40.459Z,95834.72
2022-12-23T22:34:09.112Z,95833.69
2022-12-23T22:36:36.294Z,95842.47
2022-12-23T22:39:03.529Z,95830.53
2022-12-23T22:41:31.488Z,95821.97
2022-12-23T22:43:59.432Z,95829.38
2022-12-23T22:46:27.237Z,95830.75
2022-12-23T22:48:54.867Z,95830.91
2022-12-23T22:51:27.074Z,95838.72
2022-12-23T22:53:55.073Z,95838.81
2022-12-23T22:56:23.585Z,95847.09
2022-12-23T22:58:51.946Z,95850.06
2022-12-23T23:01:29.530Z,95855.22
2022-12-23T23:03:58.455Z,95857.28
2022-12-23T23:06:39.675Z,95858.06
2022-12-23T23:09:09.563Z,95842.47
2022-12-23T23:11:36.461Z,95858.69
2022-12-23T23:14:03.438Z,95858.84
2022-12-23T23:16:30.752Z,95857.69
2022-12-23T23:18:59.059Z,95856.97
2022-12-23T23:21:26.541Z,95850.97
2022-12-23T23:23:53.405Z,95850.38
2022-12-23T23:26:20.798Z,95858.56
2022-12-23T23:28:48.197Z,95860.66
2022-12-23T23:34:02.129Z,95890.19
2022-12-23T23:36:29.095Z,95893.78
2022-12-23T23:38:56.025Z,95896.00
2022-12-23T23:41:24.032Z,95891.53
2022-12-23T23:43:52.071Z,95887.72
2022-12-23T23:46:19.440Z,95903.38
2022-12-23T23:48:46.371Z,95898.63
2022-12-23T23:51:13.381Z,95908.78
2022-12-23T23:53:40.668Z,95900.31
2022-12-23T23:56:08.980Z,95903.69
2022-12-23T23:58:37.088Z,95909.81
